^^
Station Historical Data
Daily Summary for March 25, 2017 Units:  English    Metric   Both
« Previous Day
Next Day »
Daily Weekly Monthly Yearly Custom
  High: Low: Average:
Temperature: 69.3 °F 41.0 °F 51.8 °F
Dew Point: 55.0 °F 35.1 °F 42.5 °F
Humidity: 83 % 58 % 71 %
Wind Speed: 12.2 mph 0.0 mph 1.6 mph
Wind Gust: 18.4 mph - -
Wind:- - SE
Pressure: 30.35 in 30.10 in -
Precipitation: 0.00 in    
Historical Graphs
 
 
Tabular Data for March 25, 2017
Time Temperature Dew Point Pressure Wind Wind Speed Wind Gust Humidity Rainfall Rate (Hourly) solar Conditions
00:04 42.0 °F 35.6 °F 30.15 in Calm     78 % 0.00 in 0.0 W/m2 SCT
00:09 41.9 °F 35.5 °F 30.15 in Calm     78 % 0.00 in 0.0 W/m2 SCT
00:14 42.1 °F 35.4 °F 30.15 in Calm     77 % 0.00 in 0.0 W/m2 SCT
00:19 42.2 °F 35.5 °F 30.15 in Calm     77 % 0.00 in 0.0 W/m2 SCT
00:24 42.3 °F 35.6 °F 30.15 in Calm     77 % 0.00 in 0.0 W/m2 SCT
00:29 42.6 °F 35.9 °F 30.15 in Calm     77 % 0.00 in 0.0 W/m2 SCT
00:34 42.8 °F 35.8 °F 30.15 in Calm     76 % 0.00 in 0.0 W/m2 SCT
00:40 42.5 °F 35.5 °F 30.15 in Calm     76 % 0.00 in 0.0 W/m2 SCT
00:45 42.3 °F 35.6 °F 30.15 in Calm     77 % 0.00 in 0.0 W/m2 SCT
00:50 41.8 °F 35.1 °F 30.14 in Calm     77 % 0.00 in 0.0 W/m2 CLR
00:55 41.4 °F 35.1 °F 30.14 in Calm     78 % 0.00 in 0.0 W/m2 SCT
01:00 41.4 °F 35.4 °F 30.14 in Calm     79 % 0.00 in 0.0 W/m2 SCT
01:05 41.5 °F 35.5 °F 30.14 in Calm     79 % 0.00 in 0.0 W/m2 SCT
01:10 41.4 °F 35.4 °F 30.14 in Calm     79 % 0.00 in 0.0 W/m2 SCT
01:15 41.3 °F 35.6 °F 30.14 in Calm     80 % 0.00 in 0.0 W/m2 SCT
01:20 41.4 °F 35.7 °F 30.13 in Calm     80 % 0.00 in 0.0 W/m2 SCT
01:25 41.5 °F 35.5 °F 30.13 in Calm     79 % 0.00 in 0.0 W/m2 SCT
01:30 41.3 °F 35.3 °F 30.13 in Calm     79 % 0.00 in 0.0 W/m2 SCT
01:35 41.1 °F 35.4 °F 30.13 in Calm     80 % 0.00 in 0.0 W/m2 SCT
01:40 41.1 °F 35.4 °F 30.13 in Calm     80 % 0.00 in 0.0 W/m2 SCT
01:45 41.2 °F 35.5 °F 30.13 in Calm     80 % 0.00 in 0.0 W/m2 SCT
01:50 41.1 °F 35.4 °F 30.13 in Calm     80 % 0.00 in 0.0 W/m2 SCT
01:55 41.1 °F 35.4 °F 30.13 in Calm     80 % 0.00 in 0.0 W/m2 SCT
02:00 41.2 °F 35.5 °F 30.13 in Calm     80 % 0.00 in 0.0 W/m2 SCT
02:05 41.3 °F 35.6 °F 30.13 in Calm     80 % 0.00 in 0.0 W/m2 SCT
02:10 41.3 °F 35.6 °F 30.13 in Calm     80 % 0.00 in 0.0 W/m2 SCT
02:15 41.2 °F 35.5 °F 30.13 in Calm     80 % 0.00 in 0.0 W/m2 SCT
02:20 41.1 °F 35.4 °F 30.13 in Calm     80 % 0.00 in 0.0 W/m2 SCT
02:25 41.2 °F 35.5 °F 30.13 in Calm     80 % 0.00 in 0.0 W/m2 SCT
02:30 41.1 °F 35.4 °F 30.12 in Calm     80 % 0.00 in 0.0 W/m2 SCT
02:35 41.0 °F 35.3 °F 30.12 in Calm     80 % 0.00 in 0.0 W/m2 SCT
02:40 41.0 °F 35.3 °F 30.12 in Calm     80 % 0.00 in 0.0 W/m2 SCT
02:45 41.0 °F 35.6 °F 30.12 in Calm     81 % 0.00 in 0.0 W/m2 SCT
02:50 41.1 °F 35.4 °F 30.12 in Calm     80 % 0.00 in 0.0 W/m2 SCT
02:55 41.1 °F 35.7 °F 30.11 in Calm     81 % 0.00 in 0.0 W/m2 SCT
03:00 41.0 °F 35.6 °F 30.11 in Calm     81 % 0.00 in 0.0 W/m2 SCT
03:05 41.2 °F 35.8 °F 30.11 in Calm     81 % 0.00 in 0.0 W/m2 SCT
03:10 41.3 °F 35.9 °F 30.11 in Calm     81 % 0.00 in 0.0 W/m2 SCT
03:15 41.3 °F 35.9 °F 30.11 in Calm     81 % 0.00 in 0.0 W/m2 SCT
03:20 41.5 °F 35.8 °F 30.10 in Calm     80 % 0.00 in 0.0 W/m2 SCT
03:25 41.7 °F 36.0 °F 30.10 in Calm     80 % 0.00 in 0.0 W/m2 SCT
03:30 42.1 °F 36.1 °F 30.10 in Calm     79 % 0.00 in 0.0 W/m2 SCT
03:35 42.0 °F 36.0 °F 30.10 in Calm     79 % 0.00 in 0.0 W/m2 SCT
03:40 41.9 °F 35.9 °F 30.10 in Calm     79 % 0.00 in 0.0 W/m2 SCT
03:45 41.7 °F 35.7 °F 30.10 in Calm     79 % 0.00 in 0.0 W/m2 SCT
03:50 41.8 °F 35.8 °F 30.10 in Calm     79 % 0.00 in 0.0 W/m2 SCT
03:55 42.1 °F 36.4 °F 30.10 in Calm     80 % 0.00 in 0.0 W/m2 SCT
04:00 42.1 °F 36.1 °F 30.10 in Calm     79 % 0.00 in 0.0 W/m2 SCT
04:05 41.8 °F 35.8 °F 30.10 in Calm     79 % 0.00 in 0.0 W/m2 SCT
04:10 41.8 °F 35.8 °F 30.10 in Calm     79 % 0.00 in 0.0 W/m2 SCT
04:15 41.9 °F 35.9 °F 30.10 in Calm     79 % 0.00 in 0.0 W/m2 SCT
04:20 42.1 °F 36.4 °F 30.10 in Calm     80 % 0.00 in 0.0 W/m2 SCT
04:25 42.5 °F 36.4 °F 30.10 in Calm     79 % 0.00 in 0.0 W/m2 SCT
04:30 42.9 °F 36.8 °F 30.10 in Calm     79 % 0.00 in 0.0 W/m2 SCT
04:35 43.8 °F 37.7 °F 30.10 in Calm     79 % 0.00 in 0.0 W/m2 SCT
04:40 44.6 °F 38.2 °F 30.10 in Calm     78 % 0.00 in 0.0 W/m2 SCT
04:45 44.4 °F 37.0 °F 30.11 in Calm     75 % 0.00 in 0.0 W/m2 SCT
04:46 44.3 °F 36.9 °F 30.10 in Calm     75 % 0.00 in 0.0 W/m2 SCT
04:51 42.9 °F 35.9 °F 30.11 in Calm     76 % 0.00 in 0.0 W/m2 SCT
04:56 42.1 °F 35.7 °F 30.11 in Calm     78 % 0.00 in 0.0 W/m2 SCT
05:01 42.3 °F 36.6 °F 30.11 in Calm     80 % 0.00 in 0.0 W/m2 SCT
05:06 43.2 °F 37.4 °F 30.11 in Calm     80 % 0.00 in 0.0 W/m2 SCT
05:11 43.5 °F 37.4 °F 30.11 in Calm     79 % 0.00 in 0.0 W/m2 SCT
05:16 43.9 °F 37.8 °F 30.11 in Calm     79 % 0.00 in 0.0 W/m2 SCT
05:21 43.8 °F 37.4 °F 30.11 in Calm     78 % 0.00 in 0.0 W/m2 SCT
05:26 43.0 °F 36.6 °F 30.12 in Calm     78 % 0.00 in 0.0 W/m2 SCT
05:31 42.8 °F 36.7 °F 30.12 in Calm     79 % 0.00 in 0.0 W/m2 SCT
05:36 42.9 °F 37.2 °F 30.12 in Calm     80 % 0.00 in 0.0 W/m2 SCT
05:41 43.1 °F 37.3 °F 30.12 in Calm     80 % 0.00 in 0.0 W/m2 SCT
05:46 43.6 °F 37.8 °F 30.12 in Calm     80 % 0.00 in 0.0 W/m2 SCT
05:51 43.8 °F 37.7 °F 30.12 in Calm     79 % 0.00 in 0.0 W/m2 SCT
05:56 43.7 °F 37.6 °F 30.12 in Calm     79 % 0.00 in 0.0 W/m2 SCT
06:01 43.8 °F 37.7 °F 30.12 in Calm     79 % 0.00 in 0.0 W/m2 SCT
06:06 43.8 °F 37.7 °F 30.12 in Calm     79 % 0.00 in 0.0 W/m2 SCT
06:11 44.4 °F 38.3 °F 30.11 in Calm     79 % 0.00 in 0.0 W/m2 SCT
06:16 44.8 °F 38.4 °F 30.11 in Calm     78 % 0.00 in 0.0 W/m2 SCT
06:21 44.7 °F 38.3 °F 30.11 in Calm     78 % 0.00 in 0.0 W/m2 SCT
06:26 44.8 °F 38.4 °F 30.11 in Calm     78 % 0.00 in 0.0 W/m2 SCT
06:31 44.9 °F 38.5 °F 30.12 in Calm     78 % 0.00 in 0.0 W/m2 SCT
06:36 44.4 °F 38.0 °F 30.12 in Calm     78 % 0.00 in 0.0 W/m2 SCT
06:41 44.4 °F 38.0 °F 30.12 in Calm     78 % 0.00 in 0.0 W/m2 SCT
06:46 44.5 °F 38.1 °F 30.12 in Calm     78 % 0.00 in 0.0 W/m2 SCT
06:51 44.4 °F 38.0 °F 30.12 in Calm     78 % 0.00 in 0.0 W/m2 SCT
06:56 44.4 °F 38.3 °F 30.13 in Calm     79 % 0.00 in 0.0 W/m2 SCT
07:01 44.7 °F 38.6 °F 30.13 in Calm     79 % 0.00 in 0.0 W/m2 SCT
07:06 44.8 °F 38.7 °F 30.13 in Calm     79 % 0.00 in 7.0 W/m2 SCT
07:11 44.7 °F 38.6 °F 30.13 in Calm     79 % 0.00 in 11.0 W/m2 SCT
07:12 44.7 °F 38.6 °F 30.13 in Calm     79 % 0.00 in 11.0 W/m2 SCT
07:17 45.0 °F 38.9 °F 30.13 in Calm     79 % 0.00 in 11.0 W/m2 SCT
07:22 45.2 °F 38.7 °F 30.14 in Calm     78 % 0.00 in 14.0 W/m2 SCT
07:27 45.7 °F 39.6 °F 30.14 in Calm     79 % 0.00 in 19.0 W/m2 SCT
07:32 46.3 °F 39.8 °F 30.14 in West 0.1 mph 1.2 mph 78 % 0.00 in 25.0 W/m2 SCT
07:37 46.5 °F 39.7 °F 30.14 in Calm     77 % 0.00 in 28.0 W/m2 SCT
07:42 46.7 °F 39.5 °F 30.14 in Calm     76 % 0.00 in 33.0 W/m2 SCT
07:47 46.1 °F 39.3 °F 30.14 in Calm     77 % 0.00 in 37.0 W/m2 SCT
07:52 46.3 °F 39.5 °F 30.15 in Calm     77 % 0.00 in 42.0 W/m2 SCT
07:57 47.0 °F 40.2 °F 30.15 in Calm     77 % 0.00 in 49.0 W/m2 SCT
08:02 47.6 °F 40.7 °F 30.15 in Calm     77 % 0.00 in 58.0 W/m2 SCT
08:07 48.1 °F 40.9 °F 30.15 in Calm     76 % 0.00 in 62.0 W/m2 SCT
08:12 49.2 °F 41.6 °F 30.15 in Calm     75 % 0.00 in 56.0 W/m2 BKN
08:17 49.7 °F 41.7 °F 30.15 in Calm     74 % 0.00 in 56.0 W/m2 BKN
08:22 50.0 °F 41.7 °F 30.15 in Calm     73 % 0.00 in 72.0 W/m2 BKN
08:27 50.1 °F 41.8 °F 30.15 in Calm     73 % 0.00 in 90.0 W/m2 BKN
08:32 50.6 °F 41.9 °F 30.16 in SW 0.3 mph 4.0 mph 72 % 0.00 in 93.0 W/m2 BKN
08:37 51.1 °F 42.0 °F 30.15 in Calm     71 % 0.00 in 102.0 W/m2 BKN
08:42 51.2 °F 41.7 °F 30.15 in Calm     70 % 0.00 in 102.0 W/m2 BKN
08:47 51.5 °F 42.0 °F 30.16 in Calm     70 % 0.00 in 107.0 W/m2 BKN
08:52 51.9 °F 42.4 °F 30.16 in Calm     70 % 0.00 in 95.0 W/m2 BKN
08:57 52.2 °F 42.3 °F 30.16 in Calm     69 % 0.00 in 93.0 W/m2 BKN
09:02 52.3 °F 42.0 °F 30.16 in Calm     68 % 0.00 in 98.0 W/m2 BKN
09:07 52.4 °F 42.1 °F 30.16 in Calm     68 % 0.00 in 118.0 W/m2 BKN
09:12 52.8 °F 42.5 °F 30.16 in Calm     68 % 0.00 in 132.0 W/m2 BKN
09:17 53.1 °F 42.8 °F 30.15 in Calm     68 % 0.00 in 128.0 W/m2 BKN
09:22 53.1 °F 43.2 °F 30.15 in Calm     69 % 0.00 in 167.0 W/m2 BKN
09:27 53.4 °F 43.1 °F 30.15 in Calm     68 % 0.00 in 181.0 W/m2 SCT
09:32 53.9 °F 43.6 °F 30.15 in Calm     68 % 0.00 in 200.0 W/m2 SCT
09:37 54.6 °F 43.9 °F 30.15 in Calm     67 % 0.00 in 301.0 W/m2 FEW
09:42 55.3 °F 44.5 °F 30.15 in WSW 0.6 mph 4.6 mph 67 % 0.00 in 163.0 W/m2 BKN
09:47 55.9 °F 44.7 °F 30.15 in Calm     66 % 0.00 in 186.0 W/m2 BKN
09:52 56.4 °F 45.2 °F 30.15 in SW 2.3 mph 4.6 mph 66 % 0.00 in 193.0 W/m2 BKN
09:57 56.7 °F 45.5 °F 30.16 in SSW 4.1 mph 5.8 mph 66 % 0.00 in 225.0 W/m2 SCT
10:02 57.0 °F 45.3 °F 30.15 in SW 3.4 mph 11.5 mph 65 % 0.00 in 265.0 W/m2 SCT
10:07 57.4 °F 45.7 °F 30.16 in WSW 3.1 mph 11.5 mph 65 % 0.00 in 441.0 W/m2 CLR
10:12 58.4 °F 46.3 °F 30.16 in WSW 2.0 mph 5.0 mph 64 % 0.00 in 376.0 W/m2 CLR
10:17 59.2 °F 47.0 °F 30.15 in West 5.4 mph 7.0 mph 64 % 0.00 in 508.0 W/m2 CLR
10:22 59.6 °F 47.0 °F 30.15 in WSW 0.8 mph 6.9 mph 63 % 0.00 in 297.0 W/m2 SCT
10:27 59.8 °F 47.2 °F 30.15 in West 1.7 mph 11.5 mph 63 % 0.00 in 258.0 W/m2 SCT
10:32 60.0 °F 47.4 °F 30.15 in WSW 0.4 mph 4.6 mph 63 % 0.00 in 253.0 W/m2 BKN
10:37 60.1 °F 47.5 °F 30.15 in SW 1.8 mph 8.1 mph 63 % 0.00 in 232.0 W/m2 BKN
10:42 60.5 °F 47.4 °F 30.15 in WSW 2.8 mph 10.4 mph 62 % 0.00 in 221.0 W/m2 BKN
10:48 60.7 °F 47.6 °F 30.15 in WSW 2.3 mph 6.0 mph 62 % 0.00 in 216.0 W/m2 BKN
10:53 60.8 °F 47.7 °F 30.15 in WSW 1.7 mph 10.4 mph 62 % 0.00 in 202.0 W/m2 BKN
10:58 60.7 °F 47.6 °F 30.15 in West 2.5 mph 9.2 mph 62 % 0.00 in 186.0 W/m2 BKN
11:03 60.7 °F 47.6 °F 30.15 in WSW 2.8 mph 8.1 mph 62 % 0.00 in 199.0 W/m2 BKN
11:08 60.8 °F 47.7 °F 30.15 in SW 2.5 mph 6.9 mph 62 % 0.00 in 229.0 W/m2 BKN
11:13 61.2 °F 48.1 °F 30.16 in WSW 1.8 mph 4.6 mph 62 % 0.00 in 251.0 W/m2 BKN
11:18 61.4 °F 48.3 °F 30.15 in SW 3.6 mph 5.0 mph 62 % 0.00 in 255.0 W/m2 BKN
11:23 61.6 °F 48.0 °F 30.15 in SW 1.1 mph 3.5 mph 61 % 0.00 in 264.0 W/m2 BKN
11:28 61.9 °F 48.3 °F 30.15 in WSW 4.2 mph 9.2 mph 61 % 0.00 in 308.0 W/m2 BKN
11:33 62.1 °F 48.0 °F 30.15 in WSW 1.3 mph 3.5 mph 60 % 0.00 in 295.0 W/m2 BKN
11:38 62.3 °F 48.2 °F 30.16 in WSW 1.4 mph 3.5 mph 60 % 0.00 in 229.0 W/m2 BKN
11:39 62.3 °F 48.2 °F 30.16 in SW 0.5 mph 4.0 mph 60 % 0.00 in 220.0 W/m2 BKN
11:44 62.3 °F 48.2 °F 30.16 in WSW 1.2 mph 6.0 mph 60 % 0.00 in 250.0 W/m2 BKN
11:49 62.4 °F 48.8 °F 30.16 in SW 0.2 mph 1.2 mph 61 % 0.00 in 304.0 W/m2 BKN
11:54 62.7 °F 48.6 °F 30.16 in West 1.1 mph 3.5 mph 60 % 0.00 in 348.0 W/m2 SCT
11:59 63.0 °F 48.9 °F 30.16 in WSW 1.2 mph 4.6 mph 60 % 0.00 in 596.0 W/m2 CLR
12:04 63.5 °F 48.9 °F 30.17 in SW 2.5 mph 5.0 mph 59 % 0.00 in 348.0 W/m2 SCT
12:05 63.6 °F 49.0 °F 30.17 in SW 3.0 mph 9.0 mph 59 % 0.00 in 332.0 W/m2 BKN
12:10 63.6 °F 49.0 °F 30.17 in SW 2.0 mph 7.0 mph 59 % 0.00 in 239.0 W/m2 OVC
12:16 63.7 °F 49.1 °F 30.17 in Calm   1.2 mph 59 % 0.00 in 220.0 W/m2 BKN
12:21 63.8 °F 49.2 °F 30.17 in Calm     59 % 0.00 in 281.0 W/m2 BKN
12:26 64.0 °F 48.9 °F 30.17 in West 2.5 mph 6.9 mph 58 % 0.00 in 186.0 W/m2 BKN
12:31 63.7 °F 48.6 °F 30.17 in WSW 0.4 mph 3.5 mph 58 % 0.00 in 176.0 W/m2 OVC
12:36 63.5 °F 48.9 °F 30.17 in Calm   1.2 mph 59 % 0.00 in 102.0 W/m2 OVC
12:41 63.4 °F 48.8 °F 30.17 in SSW 0.1 mph 1.2 mph 59 % 0.00 in 162.0 W/m2 OVC
12:46 63.5 °F 49.4 °F 30.17 in WSW 0.2 mph 3.5 mph 60 % 0.00 in 141.0 W/m2 OVC
12:51 63.6 °F 49.9 °F 30.17 in Calm     61 % 0.00 in 153.0 W/m2 OVC
12:56 63.4 °F 49.7 °F 30.17 in WSW 0.1 mph 2.3 mph 61 % 0.00 in 125.0 W/m2 OVC
13:01 63.0 °F 50.2 °F 30.17 in Calm     63 % 0.00 in 155.0 W/m2 OVC
13:06 62.9 °F 50.1 °F 30.16 in Calm     63 % 0.00 in 206.0 W/m2 BKN
13:11 63.0 °F 50.2 °F 30.16 in Calm     63 % 0.00 in 311.0 W/m2 BKN
13:16 63.5 °F 50.2 °F 30.16 in WSW 0.9 mph 3.5 mph 62 % 0.00 in 425.0 W/m2 SCT
13:21 64.2 °F 50.5 °F 30.17 in SSW 2.8 mph 3.5 mph 61 % 0.00 in 318.0 W/m2 SCT
13:26 64.8 °F 51.0 °F 30.17 in West 0.3 mph 6.0 mph 61 % 0.00 in 246.0 W/m2 BKN
13:31 65.0 °F 50.3 °F 30.17 in WSW 1.2 mph 3.5 mph 59 % 0.00 in 188.0 W/m2 OVC
13:36 64.9 °F 50.2 °F 30.17 in SW 4.1 mph 5.0 mph 59 % 0.00 in 186.0 W/m2 OVC
13:41 65.0 °F 50.3 °F 30.17 in SW 0.8 mph 4.6 mph 59 % 0.00 in 151.0 W/m2 OVC
13:46 65.0 °F 50.3 °F 30.17 in SSW 2.0 mph 3.5 mph 59 % 0.00 in 153.0 W/m2 OVC
13:51 65.1 °F 50.4 °F 30.17 in WSW 0.1 mph 1.2 mph 59 % 0.00 in 165.0 W/m2 OVC
13:56 65.2 °F 50.5 °F 30.17 in SW 0.6 mph 3.5 mph 59 % 0.00 in 148.0 W/m2 OVC
14:01 65.2 °F 50.5 °F 30.17 in WSW 1.1 mph 5.8 mph 59 % 0.00 in 125.0 W/m2 OVC
14:06 65.2 °F 50.5 °F 30.17 in SW 0.8 mph 1.0 mph 59 % 0.00 in 135.0 W/m2 OVC
14:11 65.2 °F 50.5 °F 30.17 in Calm   3.5 mph 59 % 0.00 in 113.0 W/m2 OVC
14:16 65.2 °F 50.5 °F 30.17 in SW 0.2 mph 2.0 mph 59 % 0.00 in 91.0 W/m2 OVC
14:21 65.1 °F 50.9 °F 30.17 in Calm     60 % 0.00 in 76.0 W/m2 OVC
14:26 65.1 °F 51.3 °F 30.17 in WSW 0.1 mph 3.5 mph 61 % 0.00 in 109.0 W/m2 OVC
14:31 65.1 °F 51.3 °F 30.17 in WSW 0.2 mph 3.5 mph 61 % 0.00 in 121.0 W/m2 OVC
14:36 65.0 °F 51.7 °F 30.17 in Calm   3.5 mph 62 % 0.00 in 113.0 W/m2 OVC
14:41 64.8 °F 52.3 °F 30.16 in Calm   1.2 mph 64 % 0.00 in 120.0 W/m2 OVC
14:46 64.6 °F 53.0 °F 30.16 in Calm     66 % 0.00 in 185.0 W/m2 OVC
14:51 64.8 °F 52.8 °F 30.17 in Calm     65 % 0.00 in 209.0 W/m2 BKN
14:56 65.0 °F 52.9 °F 30.17 in Calm   2.3 mph 65 % 0.00 in 188.0 W/m2 BKN
15:01 65.2 °F 52.7 °F 30.16 in Calm     64 % 0.00 in 188.0 W/m2 BKN
15:06 65.4 °F 52.9 °F 30.16 in Calm     64 % 0.00 in 183.0 W/m2 BKN
15:11 65.5 °F 53.4 °F 30.16 in Calm     65 % 0.00 in 185.0 W/m2 BKN
15:17 65.5 °F 53.0 °F 30.15 in Calm     64 % 0.00 in 156.0 W/m2 OVC
15:22 65.4 °F 53.7 °F 30.16 in Calm     66 % 0.00 in 209.0 W/m2 BKN
15:27 65.8 °F 54.1 °F 30.16 in Calm     66 % 0.00 in 316.0 W/m2 SCT
15:32 66.2 °F 54.1 °F 30.16 in Calm     65 % 0.00 in 469.0 W/m2 FEW
15:37 66.4 °F 53.4 °F 30.16 in Calm     63 % 0.00 in 638.0 W/m2 CLR
15:42 66.7 °F 53.7 °F 30.16 in East 0.3 mph 1.2 mph 63 % 0.00 in 367.0 W/m2 SCT
15:47 67.2 °F 54.2 °F 30.16 in South 1.7 mph 3.5 mph 63 % 0.00 in 330.0 W/m2 SCT
15:52 67.6 °F 53.7 °F 30.17 in Calm     61 % 0.00 in 461.0 W/m2 FEW
15:57 68.5 °F 55.0 °F 30.16 in Calm     62 % 0.00 in 439.0 W/m2 FEW
16:02 68.7 °F 54.3 °F 30.16 in Calm     60 % 0.00 in 557.0 W/m2 CLR
16:07 69.3 °F 54.8 °F 30.16 in Calm     60 % 0.00 in 287.0 W/m2 FEW
16:12 68.9 °F 54.4 °F 30.16 in North 0.5 mph 1.2 mph 60 % 0.00 in 232.0 W/m2 BKN
16:17 68.8 °F 54.3 °F 30.17 in Calm     60 % 0.00 in 216.0 W/m2 BKN
16:22 68.6 °F 54.2 °F 30.17 in Calm     60 % 0.00 in 160.0 W/m2 BKN
16:27 68.4 °F 54.4 °F 30.17 in NE 3.9 mph 8.0 mph 61 % 0.00 in 121.0 W/m2 OVC
16:32 67.2 °F 52.4 °F 30.17 in NE 5.2 mph 7.0 mph 59 % 0.00 in 130.0 W/m2 BKN
16:37 65.4 °F 51.1 °F 30.18 in NE 5.0 mph 5.8 mph 60 % 0.00 in 127.0 W/m2 BKN
16:42 64.0 °F 48.9 °F 30.18 in NE 12.2 mph 12.2 mph 58 % 0.00 in 109.0 W/m2 OVC
16:47 62.7 °F 48.2 °F 30.19 in NE 7.6 mph 11.5 mph 59 % 0.00 in 105.0 W/m2 OVC
16:53 61.1 °F 47.1 °F 30.19 in NE 8.0 mph 18.4 mph 60 % 0.00 in 105.0 W/m2 OVC
16:58 59.8 °F 46.3 °F 30.20 in NNE 12.0 mph 15.0 mph 61 % 0.00 in 118.0 W/m2 BKN
17:03 58.8 °F 45.8 °F 30.20 in ENE 9.3 mph 13.8 mph 62 % 0.00 in 107.0 W/m2 BKN
17:08 57.9 °F 45.4 °F 30.20 in ENE 7.8 mph 16.1 mph 63 % 0.00 in 144.0 W/m2 BKN
17:13 57.3 °F 45.2 °F 30.20 in NE 2.7 mph 10.4 mph 64 % 0.00 in 181.0 W/m2 SCT
17:18 57.3 °F 45.2 °F 30.21 in NE 6.0 mph 11.5 mph 64 % 0.00 in 172.0 W/m2 SCT
17:23 56.9 °F 44.8 °F 30.22 in NE 6.2 mph 6.2 mph 64 % 0.00 in 167.0 W/m2 SCT
17:28 56.6 °F 44.1 °F 30.22 in NE 3.9 mph 10.4 mph 63 % 0.00 in 176.0 W/m2 SCT
17:29 56.6 °F 44.6 °F 30.22 in ENE 5.2 mph 10.4 mph 64 % 0.00 in 179.0 W/m2 SCT
17:34 56.4 °F 44.4 °F 30.22 in ENE 1.4 mph 3.5 mph 64 % 0.00 in 243.0 W/m2 FEW
17:39 56.5 °F 44.5 °F 30.23 in NE 5.4 mph 13.8 mph 64 % 0.00 in 193.0 W/m2 FEW
17:44 56.2 °F 43.8 °F 30.23 in NE 3.9 mph 6.9 mph 63 % 0.00 in 209.0 W/m2 CLR
17:49 56.0 °F 43.6 °F 30.24 in NNE 11.7 mph 16.1 mph 63 % 0.00 in 172.0 W/m2 FEW
17:54 55.5 °F 43.1 °F 30.24 in NE 5.3 mph 10.4 mph 63 % 0.00 in 202.0 W/m2 CLR
17:59 55.4 °F 43.4 °F 30.24 in East 4.0 mph 6.9 mph 64 % 0.00 in 146.0 W/m2 FEW
18:04 55.1 °F 43.1 °F 30.24 in NE 5.6 mph 8.1 mph 64 % 0.00 in 114.0 W/m2 SCT
18:09 54.7 °F 42.8 °F 30.25 in ENE 2.4 mph 6.9 mph 64 % 0.00 in 132.0 W/m2 FEW
18:14 54.5 °F 43.0 °F 30.25 in East 3.7 mph 9.2 mph 65 % 0.00 in 146.0 W/m2 CLR
18:19 54.3 °F 42.8 °F 30.25 in ENE 1.1 mph 3.5 mph 65 % 0.00 in 121.0 W/m2 CLR
18:24 54.2 °F 42.7 °F 30.25 in NE 5.7 mph 10.4 mph 65 % 0.00 in 90.0 W/m2 FEW
18:29 53.9 °F 42.8 °F 30.25 in ENE 3.6 mph 8.1 mph 66 % 0.00 in 70.0 W/m2 FEW
18:34 53.6 °F 42.9 °F 30.25 in NE 2.6 mph 10.0 mph 67 % 0.00 in 67.0 W/m2 FEW
18:39 53.3 °F 42.6 °F 30.25 in NE 2.8 mph 8.1 mph 67 % 0.00 in 56.0 W/m2 FEW
18:44 52.9 °F 42.2 °F 30.25 in ENE 3.3 mph 6.9 mph 67 % 0.00 in 42.0 W/m2 SCT
18:49 52.7 °F 42.4 °F 30.25 in East 3.4 mph 9.2 mph 68 % 0.00 in 30.0 W/m2 SCT
18:54 52.5 °F 42.6 °F 30.26 in ENE 0.2 mph 2.3 mph 69 % 0.00 in 19.0 W/m2 BKN
18:59 52.4 °F 42.5 °F 30.26 in ENE 0.1 mph 1.2 mph 69 % 0.00 in 12.0 W/m2 BKN
19:04 52.3 °F 42.4 °F 30.26 in ENE 0.2 mph 1.2 mph 69 % 0.00 in 5.0 W/m2 OVC
19:09 52.1 °F 42.2 °F 30.26 in East 1.0 mph 3.5 mph 69 % 0.00 in 0.0 W/m2 OVC
19:14 51.9 °F 42.4 °F 30.26 in East 1.9 mph 6.0 mph 70 % 0.00 in 0.0 W/m2 OVC
19:19 51.9 °F 42.4 °F 30.26 in NE 1.9 mph 4.6 mph 70 % 0.00 in 0.0 W/m2 CLR
19:24 51.9 °F 42.4 °F 30.26 in Calm     70 % 0.00 in 0.0 W/m2 CLR
19:29 51.9 °F 42.8 °F 30.26 in Calm     71 % 0.00 in 0.0 W/m2 CLR
19:34 51.9 °F 42.8 °F 30.27 in Calm     71 % 0.00 in 0.0 W/m2 CLR
19:39 51.9 °F 42.8 °F 30.27 in Calm     71 % 0.00 in 0.0 W/m2 CLR
19:44 51.8 °F 42.7 °F 30.27 in Calm     71 % 0.00 in 0.0 W/m2 CLR
19:49 51.7 °F 42.6 °F 30.27 in Calm     71 % 0.00 in 0.0 W/m2 CLR
19:54 51.7 °F 42.6 °F 30.27 in Calm     71 % 0.00 in 0.0 W/m2 CLR
19:59 51.6 °F 42.5 °F 30.28 in Calm     71 % 0.00 in 0.0 W/m2 CLR
20:04 51.6 °F 42.5 °F 30.28 in Calm     71 % 0.00 in 0.0 W/m2 CLR
20:09 51.5 °F 42.4 °F 30.28 in East 0.8 mph 3.5 mph 71 % 0.00 in 0.0 W/m2 CLR
20:14 51.3 °F 42.2 °F 30.28 in NE 1.3 mph 3.5 mph 71 % 0.00 in 0.0 W/m2 CLR
20:19 51.2 °F 42.5 °F 30.29 in NE 0.8 mph 1.2 mph 72 % 0.00 in 0.0 W/m2 CLR
20:24 51.0 °F 42.3 °F 30.29 in NE 3.5 mph 4.6 mph 72 % 0.00 in 0.0 W/m2 CLR
20:29 50.9 °F 42.2 °F 30.29 in NE 0.6 mph 4.6 mph 72 % 0.00 in 0.0 W/m2 CLR
20:34 50.8 °F 42.1 °F 30.30 in NE 4.2 mph 5.8 mph 72 % 0.00 in 0.0 W/m2 CLR
20:39 50.8 °F 42.1 °F 30.30 in NE 4.8 mph 6.0 mph 72 % 0.00 in 0.0 W/m2 CLR
20:44 50.8 °F 42.1 °F 30.30 in NE 4.5 mph 10.4 mph 72 % 0.00 in 0.0 W/m2 CLR
20:49 50.6 °F 41.9 °F 30.31 in NE 6.7 mph 9.2 mph 72 % 0.00 in 0.0 W/m2 CLR
20:54 50.3 °F 41.6 °F 30.31 in NNE 6.8 mph 11.0 mph 72 % 0.00 in 0.0 W/m2 CLR
20:59 49.8 °F 41.1 °F 30.31 in NE 9.9 mph 11.5 mph 72 % 0.00 in 0.0 W/m2 CLR
21:04 49.3 °F 40.7 °F 30.32 in NE 8.6 mph 11.5 mph 72 % 0.00 in 0.0 W/m2 CLR
21:09 48.9 °F 40.3 °F 30.32 in NE 11.0 mph 15.0 mph 72 % 0.00 in 0.0 W/m2 CLR
21:14 48.5 °F 40.2 °F 30.32 in NE 6.0 mph 10.4 mph 73 % 0.00 in 0.0 W/m2 CLR
21:19 48.2 °F 39.9 °F 30.33 in NE 10.8 mph 13.8 mph 73 % 0.00 in 0.0 W/m2 CLR
21:24 47.9 °F 39.7 °F 30.33 in NE 6.9 mph 11.0 mph 73 % 0.00 in 0.0 W/m2 CLR
21:29 47.6 °F 39.7 °F 30.33 in NE 5.1 mph 13.8 mph 74 % 0.00 in 0.0 W/m2 CLR
21:34 47.0 °F 39.1 °F 30.33 in NNE 8.5 mph 11.5 mph 74 % 0.00 in 0.0 W/m2 CLR
21:39 46.4 °F 38.9 °F 30.34 in NE 9.9 mph 13.8 mph 75 % 0.00 in 0.0 W/m2 CLR
21:44 45.9 °F 38.8 °F 30.33 in NE 6.9 mph 11.5 mph 76 % 0.00 in 0.0 W/m2 CLR
21:49 45.7 °F 38.9 °F 30.34 in NE 4.0 mph 12.7 mph 77 % 0.00 in 0.0 W/m2 CLR
21:54 45.5 °F 38.7 °F 30.34 in NE 2.4 mph 5.8 mph 77 % 0.00 in 0.0 W/m2 CLR
21:59 45.4 °F 38.9 °F 30.34 in NE 4.6 mph 9.2 mph 78 % 0.00 in 0.0 W/m2 CLR
22:04 45.3 °F 39.2 °F 30.34 in NNE 4.6 mph 8.1 mph 79 % 0.00 in 0.0 W/m2 CLR
22:09 45.1 °F 39.0 °F 30.34 in NE 3.5 mph 4.0 mph 79 % 0.00 in 0.0 W/m2 CLR
22:14 44.9 °F 38.8 °F 30.34 in NE 6.2 mph 15.0 mph 79 % 0.00 in 0.0 W/m2 CLR
22:19 44.5 °F 38.7 °F 30.34 in NE 7.6 mph 9.0 mph 80 % 0.00 in 0.0 W/m2 CLR
22:24 44.3 °F 38.5 °F 30.34 in NE 5.7 mph 9.2 mph 80 % 0.00 in 0.0 W/m2 CLR
22:29 44.1 °F 38.3 °F 30.33 in NE 3.7 mph 10.0 mph 80 % 0.00 in 0.0 W/m2 CLR
22:34 43.9 °F 38.1 °F 30.34 in NE 2.7 mph 6.0 mph 80 % 0.00 in 0.0 W/m2 CLR
22:39 43.8 °F 38.3 °F 30.34 in NNE 4.7 mph 9.2 mph 81 % 0.00 in 0.0 W/m2 CLR
22:44 43.7 °F 38.3 °F 30.34 in NE 5.4 mph 9.2 mph 81 % 0.00 in 0.0 W/m2 CLR
22:50 43.7 °F 38.3 °F 30.34 in NE 4.5 mph 9.2 mph 81 % 0.00 in 0.0 W/m2 CLR
22:55 43.6 °F 38.5 °F 30.34 in ENE 0.8 mph 3.5 mph 82 % 0.00 in 0.0 W/m2 CLR
23:00 43.6 °F 38.5 °F 30.34 in NE 0.6 mph 3.5 mph 82 % 0.00 in 0.0 W/m2 CLR
23:05 43.6 °F 38.5 °F 30.34 in Calm   2.0 mph 82 % 0.00 in 0.0 W/m2 CLR
23:10 43.6 °F 38.5 °F 30.34 in NE 3.0 mph 10.0 mph 82 % 0.00 in 0.0 W/m2 CLR
23:15 43.6 °F 38.5 °F 30.34 in ENE 2.5 mph 6.9 mph 82 % 0.00 in 0.0 W/m2 CLR
23:20 43.7 °F 38.6 °F 30.35 in NE 1.7 mph 4.6 mph 82 % 0.00 in 0.0 W/m2 CLR
23:25 43.7 °F 38.9 °F 30.35 in ENE 1.3 mph 6.9 mph 83 % 0.00 in 0.0 W/m2 CLR
23:30 43.7 °F 38.9 °F 30.35 in Calm   1.2 mph 83 % 0.00 in 0.0 W/m2 CLR
23:31 43.7 °F 38.9 °F 30.35 in NE 0.8 mph 4.0 mph 83 % 0.00 in 0.0 W/m2 CLR
23:36 43.7 °F 38.9 °F 30.35 in NNE 3.5 mph 4.6 mph 83 % 0.00 in 0.0 W/m2 CLR
23:41 43.6 °F 38.8 °F 30.35 in NE 3.1 mph 7.0 mph 83 % 0.00 in 0.0 W/m2 CLR
23:46 43.5 °F 38.7 °F 30.35 in NE 5.8 mph 10.4 mph 83 % 0.00 in 0.0 W/m2 CLR
23:51 43.4 °F 38.6 °F 30.35 in NE 5.2 mph 10.4 mph 83 % 0.00 in 0.0 W/m2 CLR
23:56 43.3 °F 38.5 °F 30.35 in NE 4.8 mph 10.4 mph 83 % 0.00 in 0.0 W/m2 CLR
Air Products Campus Weather
Compliments of Weather Underground - 3.5 mb